Time;durP1;ratioP1;P1;durP2;ratioP2;P2;SDS_P1;SDS_P2;PMS_P1;PMS_P2;Temp;Humidity;BMP_temperature;BMP_pressure;BME280_temperature;BME280_humidity;BME280_pressure;Samples;Min_cycle;Max_cycle;Signal;HPM_P1;HPM_P2
2022/08/05 00:00:02;;;;;;;637.17;588.95;;;;;;;25.44;53.52;99578.28;276071;35;5767;-78
2022/08/05 00:01:51;;;;;;;579.71;533.85;;;;;;;25.51;53.29;99582.00;2499620;27;20263;-77
2022/08/05 00:02:01;;;;;;;636.53;588.70;;;;;;;25.51;53.11;99584.69;354587;27;907;-76
2022/08/05 00:02:13;;;;;;;631.37;583.57;;;;;;;25.52;53.36;99578.31;351756;28;898;-76
2022/08/05 00:02:23;;;;;;;629.40;581.60;;;;;;;25.55;53.32;99579.00;349064;28;963;-78
2022/08/05 00:02:34;;;;;;;623.25;575.65;;;;;;;25.53;53.01;99577.34;350126;28;1727;-77
2022/08/05 00:02:45;;;;;;;629.37;581.83;;;;;;;25.55;53.39;99584.38;348866;28;1287;-77
2022/08/05 00:02:55;;;;;;;631.05;583.40;;;;;;;25.52;53.33;99581.00;350400;28;955;-77
2022/08/05 00:03:05;;;;;;;629.33;581.75;;;;;;;25.51;53.87;99583.84;348907;28;1257;-78
2022/08/05 00:03:16;;;;;;;629.57;581.87;;;;;;;25.50;53.21;99582.16;347464;28;1197;-77
2022/08/05 00:03:26;;;;;;;631.60;583.80;;;;;;;25.49;53.63;99581.31;347603;28;1488;-77
2022/08/05 00:03:37;;;;;;;634.40;586.38;;;;;;;25.49;53.85;99586.69;348997;28;812;-77
2022/08/05 00:03:48;;;;;;;634.23;586.03;;;;;;;25.49;53.35;99585.84;348513;28;1287;-77
2022/08/05 00:03:58;;;;;;;632.60;584.50;;;;;;;25.46;53.56;99584.31;348455;28;1050;-77
2022/08/05 00:04:08;;;;;;;636.35;588.30;;;;;;;25.44;53.49;99583.63;350618;28;1081;-77
2022/08/05 00:04:19;;;;;;;635.60;587.80;;;;;;;25.40;53.73;99582.28;345692;28;2267;-77
2022/08/05 00:04:29;;;;;;;638.93;590.93;;;;;;;25.41;53.60;99578.59;345650;28;3164;-77
2022/08/05 00:04:40;;;;;;;639.35;591.25;;;;;;;25.42;53.60;99580.28;347352;28;1894;-77
2022/08/05 00:04:50;;;;;;;640.37;591.87;;;;;;;25.44;53.62;99583.63;347631;28;887;-77
2022/08/05 00:05:00;;;;;;;640.83;592.53;;;;;;;25.43;53.82;99581.94;347336;28;2824;-77
2022/08/05 00:05:11;;;;;;;639.63;591.43;;;;;;;25.42;53.57;99584.78;347357;28;1202;-78
2022/08/05 00:05:21;;;;;;;634.08;586.38;;;;;;;25.42;53.53;99580.28;350254;28;1223;-77
2022/08/05 00:05:32;;;;;;;632.10;584.27;;;;;;;25.41;53.33;99577.75;347473;28;903;-77
2022/08/05 00:05:42;;;;;;;635.50;587.53;;;;;;;25.43;53.64;99581.13;345789;28;1578;-77
2022/08/05 00:05:53;;;;;;;638.87;590.77;;;;;;;25.42;53.34;99587.47;347591;28;936;-77
2022/08/05 00:06:04;;;;;;;635.95;588.08;;;;;;;25.41;53.74;99583.13;349917;28;1196;-77
2022/08/05 00:06:14;;;;;;;634.37;586.53;;;;;;;25.41;53.79;99580.44;346510;28;1681;-77
2022/08/05 00:06:25;;;;;;;637.65;589.47;;;;;;;25.42;53.87;99585.63;347454;28;1257;-77
2022/08/05 00:06:35;;;;;;;639.13;591.03;;;;;;;25.40;53.71;99582.28;344837;28;2223;-77
2022/08/05 00:06:46;;;;;;;633.67;585.73;;;;;;;25.40;53.88;99571.56;344142;28;1898;-77
2022/08/05 00:06:56;;;;;;;633.07;585.33;;;;;;;25.40;53.54;99582.28;344734;28;1441;-77
2022/08/05 00:07:07;;;;;;;636.97;589.05;;;;;;;25.41;53.66;99581.28;348757;28;1207;-77
2022/08/05 00:07:17;;;;;;;641.53;593.53;;;;;;;25.42;53.65;99582.94;347565;28;903;-77
2022/08/05 00:07:27;;;;;;;644.10;596.05;;;;;;;25.42;53.82;99579.44;347533;28;1689;-77
2022/08/05 00:07:38;;;;;;;644.30;596.20;;;;;;;25.43;53.60;99581.94;344805;28;1222;-77
2022/08/05 00:07:48;;;;;;;645.83;597.55;;;;;;;25.44;53.74;99580.13;344442;28;1187;-78
2022/08/05 00:07:58;;;;;;;646.70;598.33;;;;;;;25.43;53.85;99576.59;345120;28;1380;-78
2022/08/05 00:08:09;;;;;;;647.07;598.67;;;;;;;25.43;53.47;99581.94;344875;28;1312;-77
2022/08/05 00:08:19;;;;;;;645.05;596.58;;;;;;;25.45;54.00;99576.44;345968;28;922;-77
2022/08/05 00:08:30;;;;;;;639.43;591.13;;;;;;;25.45;53.85;99577.28;348159;28;1229;-77
2022/08/05 00:08:40;;;;;;;639.50;591.13;;;;;;;25.46;53.64;99580.78;344936;28;1081;-77
2022/08/05 00:08:50;;;;;;;639.23;591.03;;;;;;;25.45;53.73;99579.97;343308;28;1518;-77
2022/08/05 00:09:01;;;;;;;635.22;587.33;;;;;;;25.45;53.48;99582.63;344828;28;912;-77
2022/08/05 00:09:11;;;;;;;633.17;585.33;;;;;;;25.44;53.72;99578.28;342248;28;882;-77
2022/08/05 00:09:22;;;;;;;627.87;580.07;;;;;;;25.46;53.93;99584.31;344908;28;1658;-77
2022/08/05 00:09:32;;;;;;;631.35;583.35;;;;;;;25.44;53.77;99578.28;342071;28;1002;-78
2022/08/05 00:09:42;;;;;;;633.37;585.37;;;;;;;25.44;53.94;99585.47;342603;28;1274;-78
2022/08/05 00:09:53;;;;;;;635.30;587.35;;;;;;;25.45;53.73;99577.28;346131;28;1410;-78
2022/08/05 00:10:04;;;;;;;632.70;584.97;;;;;;;25.43;53.72;99581.94;342169;28;1420;-78
2022/08/05 00:10:14;;;;;;;633.10;585.20;;;;;;;25.43;54.02;99579.28;338583;29;1350;-78
2022/08/05 00:10:24;;;;;;;635.67;587.67;;;;;;;25.43;53.66;99576.59;339446;29;1065;-78
2022/08/05 00:10:35;;;;;;;634.00;586.10;;;;;;;25.43;53.92;99584.63;336658;29;1371;-78
2022/08/05 00:10:45;;;;;;;632.73;584.97;;;;;;;25.42;54.00;99580.28;335818;29;1272;-78
2022/08/05 00:10:59;;;;;;;632.37;584.53;;;;;;;25.43;54.12;99576.59;334181;29;1283;-78
2022/08/05 00:11:12;;;;;;;640.08;592.05;;;;;;;25.43;53.93;99578.44;333095;29;939;-78
2022/08/05 00:11:22;;;;;;;639.58;591.50;;;;;;;25.42;54.23;99580.28;331721;29;1419;-78
2022/08/05 00:11:33;;;;;;;639.57;591.37;;;;;;;25.43;54.02;99573.06;330772;29;1153;-77
2022/08/05 00:11:43;;;;;;;642.30;594.13;;;;;;;25.43;54.09;99576.59;330181;29;1673;-77
2022/08/05 00:11:53;;;;;;;641.27;593.33;;;;;;;25.45;53.77;99573.75;328610;29;1201;-77
2022/08/05 00:12:04;;;;;;;636.45;588.72;;;;;;;25.44;53.79;99572.91;326972;30;2036;-77
2022/08/05 00:12:14;;;;;;;630.73;583.13;;;;;;;25.44;54.00;99578.28;325922;30;1660;-77
2022/08/05 00:12:25;;;;;;;634.42;586.72;;;;;;;25.44;53.71;99577.44;325136;29;1668;-77
2022/08/05 00:12:35;;;;;;;633.93;586.30;;;;;;;25.44;53.59;99575.59;325978;30;1485;-77
2022/08/05 00:12:45;;;;;;;631.57;584.07;;;;;;;25.42;53.58;99569.56;330032;29;1356;-77
2022/08/05 00:12:56;;;;;;;621.97;574.55;;;;;;;25.41;53.85;99570.56;331721;29;1765;-77
2022/08/05 00:13:06;;;;;;;619.37;571.83;;;;;;;25.41;53.89;99572.38;329219;30;1206;-77
2022/08/05 00:13:17;;;;;;;614.03;566.42;;;;;;;25.41;53.69;99573.22;328057;30;942;-77
2022/08/05 00:13:30;;;;;;;618.60;570.90;;;;;;;25.42;53.90;99569.56;328339;30;1254;-77
2022/08/05 00:13:42;;;;;;;625.75;578.10;;;;;;;25.40;53.76;99576.91;325075;30;2720;-77
2022/08/05 00:13:52;;;;;;;625.72;578.05;;;;;;;25.40;53.70;99570.72;323404;30;848;-77
2022/08/05 00:14:03;;;;;;;629.13;580.92;;;;;;;25.39;53.87;99574.38;326974;30;2119;-77
2022/08/05 00:14:13;;;;;;;632.10;583.83;;;;;;;25.41;53.68;99573.22;324885;30;2501;-77
2022/08/05 00:14:24;;;;;;;635.88;587.72;;;;;;;25.42;53.79;99574.06;323283;30;832;-77
2022/08/05 00:14:34;;;;;;;631.77;583.97;;;;;;;25.42;54.06;99580.28;327587;30;2280;-77
2022/08/05 00:14:44;;;;;;;625.75;578.28;;;;;;;25.39;53.85;99569.88;324283;30;2016;-77
2022/08/05 00:14:55;;;;;;;624.93;577.43;;;;;;;25.40;53.96;99576.06;324250;30;1921;-77
2022/08/05 00:15:05;;;;;;;624.20;576.60;;;;;;;25.39;53.93;99577.91;322068;30;1288;-77
2022/08/05 00:15:16;;;;;;;627.92;580.15;;;;;;;25.37;54.10;99569.19;321414;30;1662;-77
2022/08/05 00:15:27;;;;;;;628.50;580.55;;;;;;;25.38;53.83;99578.06;321777;30;1964;-77
2022/08/05 00:15:37;;;;;;;629.13;581.33;;;;;;;25.39;53.95;99577.91;320925;30;1177;-77
2022/08/05 00:15:48;;;;;;;622.53;574.90;;;;;;;25.40;53.97;99574.22;317562;30;2277;-77
2022/08/05 00:15:58;;;;;;;616.73;569.30;;;;;;;25.39;54.23;99574.38;316851;30;2722;-77
2022/08/05 00:16:11;;;;;;;617.47;569.85;;;;;;;25.39;54.03;99575.22;313801;31;2040;-77
2022/08/05 00:16:21;;;;;;;629.00;581.20;;;;;;;25.38;54.04;99572.72;308515;32;1285;-77
2022/08/05 00:16:31;;;;;;;633.67;585.90;;;;;;;25.35;54.13;99578.38;309776;31;3199;-76
2022/08/05 00:16:42;;;;;;;629.67;582.17;;;;;;;25.33;54.22;99570.50;307580;31;3398;-76
2022/08/05 00:16:52;;;;;;;623.35;575.95;;;;;;;25.32;54.37;99576.00;307478;32;1595;-78
2022/08/05 00:17:03;;;;;;;625.53;578.00;;;;;;;25.31;54.42;99571.66;301923;32;3822;-77
2022/08/05 00:17:13;;;;;;;625.17;577.63;;;;;;;25.31;54.13;99577.00;302837;31;2692;-77
2022/08/05 00:17:23;;;;;;;629.87;582.17;;;;;;;25.30;54.41;99576.16;306063;32;2101;-77
2022/08/05 00:17:34;;;;;;;627.07;579.47;;;;;;;25.30;54.23;99568.13;304777;32;2266;-77
2022/08/05 00:17:44;;;;;;;629.03;581.40;;;;;;;25.31;54.32;99572.50;304646;32;2342;-77
2022/08/05 00:17:55;;;;;;;626.03;578.40;;;;;;;25.32;54.61;99573.34;306106;31;2628;-77
2022/08/05 00:18:05;;;;;;;627.13;579.42;;;;;;;25.30;54.28;99569.97;299080;33;1340;-77
2022/08/05 00:18:15;;;;;;;632.33;584.53;;;;;;;25.32;54.27;99579.53;295620;33;4196;-77
2022/08/05 00:18:26;;;;;;;629.53;581.73;;;;;;;25.30;54.44;99576.16;292398;33;4380;-77
2022/08/05 00:18:37;;;;;;;629.25;581.42;;;;;;;25.29;54.29;99579.84;296065;33;1337;-77
2022/08/05 00:18:48;;;;;;;626.13;578.30;;;;;;;25.28;54.23;99572.81;290698;33;4874;-77
2022/08/05 00:18:58;;;;;;;628.83;581.05;;;;;;;25.29;54.12;99571.81;290261;33;4789;-77
2022/08/05 00:19:08;;;;;;;631.70;583.93;;;;;;;25.30;54.47;99573.50;293096;33;1207;-77
2022/08/05 00:19:22;;;;;;;630.47;582.77;;;;;;;25.31;54.05;99572.50;286565;34;4083;-77
2022/08/05 00:19:33;;;;;;;626.83;579.38;;;;;;;25.31;54.14;99567.13;289102;34;4294;-77
2022/08/05 00:19:43;;;;;;;628.83;581.28;;;;;;;25.30;54.32;99568.13;288122;34;3775;-76
2022/08/05 00:19:54;;;;;;;637.60;589.80;;;;;;;25.31;54.37;99568.97;286015;34;1427;-76
2022/08/05 00:20:05;;;;;;;640.70;592.83;;;;;;;25.32;54.40;99571.50;285494;34;3170;-76
2022/08/05 00:20:15;;;;;;;638.20;590.33;;;;;;;25.33;54.35;99575.00;284653;33;4582;-76
2022/08/05 00:20:25;;;;;;;637.13;589.23;;;;;;;25.30;54.70;99573.50;283845;34;6716;-76
2022/08/05 00:20:36;;;;;;;632.28;584.47;;;;;;;25.32;54.74;99576.00;279775;35;1274;-76
2022/08/05 00:20:46;;;;;;;632.37;584.47;;;;;;;25.31;54.62;99571.66;280933;34;6426;-76
2022/08/05 00:20:57;;;;;;;628.57;580.77;;;;;;;25.30;55.04;99573.50;280070;34;6995;-78
2022/08/05 00:21:07;;;;;;;630.70;582.80;;;;;;;25.30;54.50;99575.34;280801;35;1976;-77
2022/08/05 00:21:17;;;;;;;630.47;582.67;;;;;;;25.30;54.46;99581.53;278625;35;6773;-77
2022/08/05 00:21:28;;;;;;;631.72;583.83;;;;;;;25.29;54.26;99571.81;278416;34;5375;-77
2022/08/05 00:21:38;;;;;;;637.03;588.83;;;;;;;25.30;54.21;99575.34;280118;35;1120;-77
2022/08/05 00:21:48;;;;;;;636.17;587.90;;;;;;;25.29;54.33;99574.50;278414;35;5452;-76
2022/08/05 00:21:59;;;;;;;636.33;588.13;;;;;;;25.29;54.50;99573.66;277599;35;4688;-76
2022/08/05 00:22:09;;;;;;;631.00;583.23;;;;;;;25.30;54.65;99578.00;276412;35;1844;-76
2022/08/05 00:22:20;;;;;;;634.67;586.80;;;;;;;25.29;54.47;99573.66;272524;36;2793;-76
2022/08/05 00:24:04;;;;;;;586.05;540.14;;;;;;;25.23;55.09;99575.13;2495989;27;20504;-76
2022/08/05 00:24:14;;;;;;;628.38;580.88;;;;;;;25.24;55.10;99566.06;352958;28;2201;-76
2022/08/05 00:24:24;;;;;;;623.27;575.97;;;;;;;25.24;55.12;99571.44;350226;28;1674;-76
2022/08/05 00:24:35;;;;;;;627.60;580.13;;;;;;;25.25;55.15;99583.84;347512;28;1205;-76
2022/08/05 00:24:45;;;;;;;626.45;579.08;;;;;;;25.23;55.07;99569.75;348979;28;856;-76
2022/08/05 00:24:55;;;;;;;631.20;583.63;;;;;;;25.23;55.12;99575.13;348824;28;1275;-76
2022/08/05 00:25:06;;;;;;;631.80;584.10;;;;;;;25.23;55.05;99572.44;349726;28;1217;-76
2022/08/05 00:25:16;;;;;;;625.53;578.03;;;;;;;25.23;55.02;99569.75;350437;28;894;-76
2022/08/05 00:25:27;;;;;;;622.42;575.22;;;;;;;25.23;54.88;99574.28;348942;28;1025;-76
2022/08/05 00:25:37;;;;;;;625.53;578.37;;;;;;;25.23;55.23;99574.28;347586;28;926;-76
2022/08/05 00:25:48;;;;;;;629.03;581.63;;;;;;;25.21;55.00;99574.44;349025;28;879;-76
2022/08/05 00:25:58;;;;;;;628.92;581.35;;;;;;;25.23;54.96;99572.44;350340;28;855;-76
2022/08/05 00:26:09;;;;;;;627.33;579.73;;;;;;;25.22;55.32;99576.13;350145;28;1475;-76
2022/08/05 00:26:19;;;;;;;630.63;583.05;;;;;;;25.22;55.20;99570.75;350151;28;2166;-76
2022/08/05 00:26:29;;;;;;;630.90;583.40;;;;;;;25.23;55.26;99577.78;348951;28;806;-76
2022/08/05 00:26:40;;;;;;;632.05;584.55;;;;;;;25.23;55.02;99577.78;347950;28;1322;-76
2022/08/05 00:26:51;;;;;;;632.07;584.60;;;;;;;25.24;54.81;99571.44;347719;28;891;-78
2022/08/05 00:27:02;;;;;;;633.22;585.67;;;;;;;25.25;54.90;99578.47;348959;28;1402;-77
2022/08/05 00:27:12;;;;;;;630.20;582.70;;;;;;;25.25;54.89;99572.28;349015;28;910;-77
2022/08/05 00:27:22;;;;;;;630.97;583.37;;;;;;;25.24;55.09;99570.59;347656;28;1227;-77
2022/08/05 00:27:33;;;;;;;633.35;585.88;;;;;;;25.23;55.16;99575.13;349135;28;1038;-77
2022/08/05 00:27:43;;;;;;;635.20;587.77;;;;;;;25.24;55.17;99574.13;349223;28;1357;-77
2022/08/05 00:27:54;;;;;;;626.15;578.90;;;;;;;25.24;55.42;99574.13;347386;28;1251;-77
2022/08/05 00:28:04;;;;;;;620.90;573.33;;;;;;;25.22;55.05;99576.13;348832;28;1212;-77
2022/08/05 00:28:14;;;;;;;623.50;575.73;;;;;;;25.22;55.44;99573.44;349517;28;1234;-77
2022/08/05 00:28:25;;;;;;;625.40;577.83;;;;;;;25.22;54.95;99573.44;353076;28;1565;-77
2022/08/05 00:28:35;;;;;;;625.47;578.30;;;;;;;25.22;55.15;99573.44;353209;28;866;-77
2022/08/05 00:28:46;;;;;;;624.65;577.47;;;;;;;25.20;55.18;99580.78;350477;28;1137;-76
2022/08/05 00:28:56;;;;;;;628.83;581.33;;;;;;;25.20;55.43;99578.09;348785;28;2046;-77
2022/08/05 00:29:06;;;;;;;626.33;578.88;;;;;;;25.19;55.37;99579.09;350401;28;835;-77
2022/08/05 00:29:17;;;;;;;627.33;579.87;;;;;;;25.20;55.26;99575.44;348890;28;1190;-77
2022/08/05 00:29:27;;;;;;;629.57;582.00;;;;;;;25.20;55.50;99575.44;346590;28;1639;-77
2022/08/05 00:29:38;;;;;;;628.80;581.15;;;;;;;25.18;55.44;99567.53;346184;28;1165;-77
2022/08/05 00:29:48;;;;;;;630.30;582.63;;;;;;;25.19;55.18;99573.75;346244;28;935;-77
2022/08/05 00:29:59;;;;;;;632.03;584.30;;;;;;;25.19;55.19;99574.59;343842;28;1434;-78
2022/08/05 00:30:09;;;;;;;632.20;584.47;;;;;;;25.17;55.36;99573.06;343513;28;945;-77
2022/08/05 00:30:20;;;;;;;628.38;580.72;;;;;;;25.17;55.58;99570.38;342457;28;1260;-77
2022/08/05 00:30:30;;;;;;;625.17;577.70;;;;;;;25.18;55.50;99572.06;345739;28;1308;-76
2022/08/05 00:30:40;;;;;;;629.67;582.28;;;;;;;25.17;55.38;99581.09;344684;28;1276;-76
2022/08/05 00:30:51;;;;;;;629.47;582.17;;;;;;;25.17;55.39;99575.75;344543;28;2327;-76
2022/08/05 00:31:02;;;;;;;633.63;586.30;;;;;;;25.16;55.33;99574.06;342390;28;1433;-76
2022/08/05 00:31:12;;;;;;;631.40;584.20;;;;;;;25.16;55.47;99574.06;341167;28;852;-76
2022/08/05 00:31:23;;;;;;;631.47;584.30;;;;;;;25.16;55.49;99571.38;342152;28;939;-76
2022/08/05 00:31:33;;;;;;;631.30;584.00;;;;;;;25.13;55.49;99569.84;339519;29;1282;-76
2022/08/05 00:31:43;;;;;;;629.80;582.45;;;;;;;25.12;55.33;99576.25;340702;28;974;-76
2022/08/05 00:31:54;;;;;;;631.07;583.53;;;;;;;25.12;55.58;99578.06;338460;28;3516;-76
2022/08/05 00:32:05;;;;;;;632.53;584.92;;;;;;;25.15;55.54;99575.91;336444;29;4972;-77
2022/08/05 00:32:15;;;;;;;637.88;590.13;;;;;;;25.15;55.33;99575.06;340559;28;1841;-77
2022/08/05 00:32:26;;;;;;;632.43;584.63;;;;;;;25.16;55.55;99566.03;340440;28;1748;-77
2022/08/05 00:32:36;;;;;;;626.97;579.22;;;;;;;25.11;55.49;99566.53;340700;29;2939;-78
2022/08/05 00:32:48;;;;;;;618.80;571.37;;;;;;;25.13;55.56;99569.00;340433;28;1614;-77
2022/08/05 00:32:58;;;;;;;622.90;575.42;;;;;;;25.14;55.26;99571.53;335665;29;1974;-77
2022/08/05 00:33:09;;;;;;;626.63;579.03;;;;;;;25.13;55.40;99574.38;333816;29;1063;-77
2022/08/05 00:33:19;;;;;;;625.85;578.08;;;;;;;25.11;55.66;99571.03;336971;29;920;-77
2022/08/05 00:33:30;;;;;;;626.20;578.33;;;;;;;25.13;55.18;99566.34;336875;29;835;-77
2022/08/05 00:33:41;;;;;;;618.85;571.20;;;;;;;25.14;55.46;99565.34;336723;29;996;-77
2022/08/05 00:33:51;;;;;;;616.00;568.77;;;;;;;25.15;55.54;99567.03;333148;29;1005;-77
2022/08/05 00:34:03;;;;;;;612.40;565.17;;;;;;;25.16;55.68;99574.91;337827;29;1408;-77
2022/08/05 00:34:13;;;;;;;618.55;571.10;;;;;;;25.16;55.35;99563.34;336960;29;2139;-77
2022/08/05 00:34:24;;;;;;;620.20;572.77;;;;;;;25.16;55.78;99568.69;334093;29;1633;-77
2022/08/05 00:34:34;;;;;;;623.35;576.20;;;;;;;25.15;55.53;99573.22;334428;29;1223;-78
2022/08/05 00:34:44;;;;;;;627.60;580.30;;;;;;;25.16;55.71;99571.38;331704;29;2001;-78
2022/08/05 00:34:55;;;;;;;627.73;580.30;;;;;;;25.16;55.50;99569.53;331529;29;2253;-78
2022/08/05 00:35:06;;;;;;;621.67;574.17;;;;;;;25.16;55.57;99569.53;330794;29;891;-78
2022/08/05 00:35:16;;;;;;;611.55;564.28;;;;;;;25.17;55.62;99573.06;331393;29;1796;-78
2022/08/05 00:35:27;;;;;;;610.97;563.97;;;;;;;25.15;55.45;99564.34;330735;29;1022;-77
2022/08/05 00:35:37;;;;;;;615.35;568.28;;;;;;;25.16;55.75;99566.84;328486;30;1372;-77
2022/08/05 00:35:48;;;;;;;622.17;574.90;;;;;;;25.17;55.26;99565.03;331930;29;1368;-77
2022/08/05 00:35:58;;;;;;;623.58;576.03;;;;;;;25.14;55.73;99565.34;327914;29;1901;-77
2022/08/05 00:36:08;;;;;;;624.10;576.47;;;;;;;25.13;55.55;99563.66;322914;30;2100;-77
2022/08/05 00:36:21;;;;;;;618.28;570.60;;;;;;;25.13;55.57;99571.69;322736;30;1463;-77
2022/08/05 00:36:31;;;;;;;619.95;572.30;;;;;;;25.11;55.76;99571.03;323703;30;2496;-78
2022/08/05 00:36:42;;;;;;;612.72;565.33;;;;;;;25.11;56.00;99571.88;322024;30;2357;-77
2022/08/05 00:36:52;;;;;;;613.67;566.33;;;;;;;25.11;55.77;99568.34;320684;30;2677;-77
2022/08/05 00:37:05;;;;;;;617.00;569.60;;;;;;;25.09;55.61;99567.69;322394;30;971;-77
2022/08/05 00:37:16;;;;;;;616.58;569.30;;;;;;;25.09;55.50;99567.69;321641;30;2802;-77
2022/08/05 00:37:26;;;;;;;618.80;571.38;;;;;;;25.06;56.03;99567.97;320295;30;2009;-77
2022/08/05 00:37:36;;;;;;;625.33;577.73;;;;;;;25.06;55.84;99567.97;318732;31;751;-77
2022/08/05 00:37:47;;;;;;;632.17;584.42;;;;;;;25.03;56.13;99569.13;318311;31;1351;-77
2022/08/05 00:37:57;;;;;;;633.87;586.13;;;;;;;25.03;55.97;99569.13;313828;31;2152;-77
2022/08/05 00:38:08;;;;;;;629.10;581.53;;;;;;;25.05;56.07;99566.31;312586;31;2521;-77
2022/08/05 00:38:18;;;;;;;627.80;580.33;;;;;;;25.04;55.84;99569.97;313515;31;919;-77
2022/08/05 00:38:28;;;;;;;630.87;583.37;;;;;;;25.04;55.99;99564.63;311946;31;2745;-77
2022/08/05 00:38:39;;;;;;;630.65;582.90;;;;;;;25.05;55.55;99566.31;310868;31;3323;-77
2022/08/05 00:38:50;;;;;;;630.60;582.80;;;;;;;25.05;55.86;99574.34;314043;31;823;-77
2022/08/05 00:39:00;;;;;;;622.72;575.12;;;;;;;25.02;56.02;99574.66;314950;31;3357;-77
2022/08/05 00:39:11;;;;;;;623.17;575.73;;;;;;;25.00;56.17;99565.94;313704;31;3504;-77
2022/08/05 00:39:21;;;;;;;623.70;576.23;;;;;;;24.98;55.98;99563.41;312834;31;1745;-77
2022/08/05 00:39:32;;;;;;;631.30;583.53;;;;;;;24.97;56.07;99571.59;313256;31;3410;-77
2022/08/05 00:39:42;;;;;;;633.77;585.97;;;;;;;24.96;55.64;99569.91;310274;31;2531;-77
2022/08/05 00:39:53;;;;;;;633.15;585.45;;;;;;;24.97;56.00;99561.72;308240;31;2258;-77
2022/08/05 00:40:04;;;;;;;635.50;587.70;;;;;;;24.99;56.20;99566.91;307467;32;1191;-77
2022/08/05 00:40:14;;;;;;;640.67;592.50;;;;;;;24.96;55.72;99573.44;308382;31;2799;-77
2022/08/05 00:40:25;;;;;;;644.95;596.63;;;;;;;24.96;55.93;99572.59;305149;31;3447;-77
2022/08/05 00:40:45;;;;;;;649.40;601.03;;;;;;;24.98;56.24;99573.28;306437;32;1342;-77
2022/08/05 00:40:57;;;;;;;637.17;589.28;;;;;;;24.99;55.83;99566.91;303202;32;4403;-77
2022/08/05 00:41:07;;;;;;;631.38;583.83;;;;;;;24.99;55.89;99570.44;298778;32;4415;-77
2022/08/05 00:41:30;;;;;;;634.97;587.45;;;;;;;24.99;56.08;99561.56;296163;33;4667;-77
2022/08/05 00:41:44;;;;;;;633.20;585.67;;;;;;;24.99;56.13;99565.09;295539;33;4891;-77
2022/08/05 00:41:55;;;;;;;631.15;583.67;;;;;;;25.01;55.99;99568.44;293492;33;3499;-77
2022/08/05 00:42:05;;;;;;;629.37;582.07;;;;;;;25.00;56.22;99568.59;296105;33;858;-77
2022/08/05 00:42:31;;;;;;;636.20;588.45;;;;;;;25.02;56.10;99564.78;296004;33;3269;-77
2022/08/05 00:42:41;;;;;;;638.13;590.40;;;;;;;25.02;55.84;99572.81;293000;33;5729;-77
2022/08/05 00:42:52;;;;;;;642.30;594.50;;;;;;;25.04;55.91;99569.97;291940;33;1661;-77
2022/08/05 00:43:02;;;;;;;638.37;590.63;;;;;;;25.03;55.75;99569.13;285055;34;7593;-77
2022/08/05 00:43:12;;;;;;;633.93;586.23;;;;;;;25.04;56.19;99567.31;282343;34;5845;-77
2022/08/05 00:43:23;;;;;;;629.33;581.90;;;;;;;25.04;55.92;99567.31;282795;34;6095;-77
2022/08/05 00:43:34;;;;;;;629.10;581.58;;;;;;;25.03;55.75;99565.63;283363;35;1052;-77
2022/08/05 00:43:45;;;;;;;638.53;590.67;;;;;;;25.04;55.91;99564.63;280505;35;6542;-78
2022/08/05 00:43:56;;;;;;;640.20;592.35;;;;;;;25.03;55.77;99565.63;279308;35;6761;-77
2022/08/05 00:44:06;;;;;;;638.88;591.10;;;;;;;25.00;56.23;99564.09;279189;35;850;-77
2022/08/05 00:44:17;;;;;;;631.50;584.07;;;;;;;25.00;56.07;99568.59;282575;34;4985;-77
2022/08/05 00:44:27;;;;;;;636.08;588.45;;;;;;;24.98;56.46;99567.91;280466;35;5048;-77
2022/08/05 00:44:37;;;;;;;636.30;588.50;;;;;;;24.98;56.32;99576.78;277008;35;7404;-77
2022/08/05 00:44:48;;;;;;;640.33;592.40;;;;;;;24.98;56.06;99567.91;278201;35;1324;-77
2022/08/05 00:44:59;;;;;;;639.15;591.15;;;;;;;24.98;56.46;99567.91;276619;35;7957;-77
2022/08/05 00:45:09;;;;;;;649.22;601.03;;;;;;;24.99;56.24;99573.13;275303;35;8792;-77
2022/08/05 00:45:20;;;;;;;647.53;599.23;;;;;;;24.99;56.41;99572.28;276485;35;1354;-78
2022/08/05 00:45:30;;;;;;;650.20;601.93;;;;;;;24.99;56.38;99564.25;277016;35;8113;-76
2022/08/05 00:45:42;;;;;;;645.43;597.27;;;;;;;24.98;55.99;99571.44;276287;35;8708;-77
2022/08/05 00:45:53;;;;;;;640.13;592.25;;;;;;;25.00;56.31;99573.97;275858;35;8456;-77
2022/08/05 00:46:03;;;;;;;636.83;588.83;;;;;;;24.98;56.24;99570.59;272756;36;1871;-77
2022/08/05 00:47:44;;;;;;;599.31;553.07;;;;;;;24.96;56.24;99567.22;2503200;27;20277;-77
2022/08/05 00:47:55;;;;;;;634.43;586.53;;;;;;;24.96;56.17;99577.94;351649;28;1202;-76
2022/08/05 00:48:12;;;;;;;635.37;587.37;;;;;;;24.95;56.46;99566.34;348990;28;1196;-76
2022/08/05 00:48:22;;;;;;;627.67;579.92;;;;;;;24.97;56.33;99567.06;347567;28;999;-76
2022/08/05 00:48:33;;;;;;;617.92;570.40;;;;;;;24.94;56.55;99564.69;347645;28;1000;-76
2022/08/05 00:48:43;;;;;;;619.67;572.17;;;;;;;24.95;56.63;99571.72;346154;28;1314;-76
2022/08/05 00:48:54;;;;;;;611.85;564.50;;;;;;;24.96;56.37;99561.88;348374;28;970;-76
2022/08/05 00:49:04;;;;;;;616.57;569.07;;;;;;;24.94;56.29;99566.50;347520;28;1156;-75
2022/08/05 00:49:18;;;;;;;618.05;570.38;;;;;;;24.93;56.51;99562.16;347459;28;1208;-75
2022/08/05 00:49:28;;;;;;;621.95;574.20;;;;;;;24.93;56.51;99567.50;349392;28;1462;-75
2022/08/05 00:49:38;;;;;;;626.53;578.55;;;;;;;24.94;56.22;99563.84;348756;28;1329;-75
2022/08/05 00:49:49;;;;;;;629.60;581.47;;;;;;;24.94;56.21;99567.34;347383;28;1222;-75
2022/08/05 00:49:59;;;;;;;632.55;584.20;;;;;;;24.96;56.47;99568.06;347554;28;1346;-75
2022/08/05 00:50:10;;;;;;;631.47;583.27;;;;;;;24.95;56.61;99566.34;348782;28;1289;-75
2022/08/05 00:50:20;;;;;;;632.63;584.63;;;;;;;24.94;56.48;99570.03;345802;28;2678;-75
2022/08/05 00:50:30;;;;;;;629.58;581.78;;;;;;;24.93;56.39;99562.16;346689;28;3437;-75
2022/08/05 00:50:42;;;;;;;635.17;587.23;;;;;;;24.93;56.33;99567.50;347507;28;1301;-75
2022/08/05 00:50:53;;;;;;;633.30;585.30;;;;;;;24.93;56.68;99559.47;347593;28;882;-75
2022/08/05 00:51:03;;;;;;;633.83;585.67;;;;;;;24.90;56.48;99562.47;348494;28;2986;-77
2022/08/05 00:51:14;;;;;;;636.03;587.77;;;;;;;24.91;56.42;99564.16;348959;28;1199;-77
2022/08/05 00:51:24;;;;;;;646.55;597.85;;;;;;;24.91;56.42;99564.97;348568;28;1239;-77
2022/08/05 00:51:35;;;;;;;649.20;600.57;;;;;;;24.91;56.57;99564.97;349200;28;1145;-76
2022/08/05 00:51:46;;;;;;;637.72;589.58;;;;;;;24.90;56.40;99560.63;349023;28;935;-76
2022/08/05 00:51:56;;;;;;;633.85;585.95;;;;;;;24.90;56.82;99563.31;348913;28;979;-76
2022/08/05 00:52:07;;;;;;;637.20;589.30;;;;;;;24.90;56.66;99562.47;347403;28;1297;-76
2022/08/05 00:52:18;;;;;;;648.72;600.63;;;;;;;24.89;56.32;99566.97;345991;28;2134;-76
2022/08/05 00:52:29;;;;;;;640.42;592.47;;;;;;;24.90;56.41;99557.09;344788;28;1875;-76
2022/08/05 00:52:40;;;;;;;640.38;592.42;;;;;;;24.90;56.50;99560.63;343611;28;869;-76
2022/08/05 00:52:50;;;;;;;641.55;593.63;;;;;;;24.90;56.63;99563.31;343571;28;882;-76
2022/08/05 00:53:01;;;;;;;645.63;597.63;;;;;;;24.90;56.64;99563.31;344545;28;1187;-76
2022/08/05 00:53:11;;;;;;;645.47;597.58;;;;;;;24.88;56.52;99560.78;346174;28;985;-76
2022/08/05 00:53:22;;;;;;;646.33;598.17;;;;;;;24.88;56.67;99560.78;344693;28;1110;-76
2022/08/05 00:53:32;;;;;;;646.25;598.08;;;;;;;24.87;56.61;99558.25;344984;28;1323;-76
2022/08/05 00:53:43;;;;;;;650.58;602.22;;;;;;;24.88;56.69;99568.81;344466;28;1205;-76
2022/08/05 00:53:53;;;;;;;647.93;599.83;;;;;;;24.88;56.82;99562.63;344020;28;1253;-77
2022/08/05 00:54:04;;;;;;;649.20;601.00;;;;;;;24.91;56.53;99564.16;343767;28;1213;-77
2022/08/05 00:54:14;;;;;;;644.60;596.38;;;;;;;24.90;56.50;99562.47;342386;28;1315;-77